createdAt,value
2018-12-30T00:01:00.679Z,99950.00
2018-12-30T00:03:30.161Z,99937.00
2018-12-30T00:06:01.083Z,99935.00
2018-12-30T00:08:30.803Z,99925.00
2018-12-30T00:10:59.980Z,99930.00
2018-12-30T00:13:29.510Z,99932.00
2018-12-30T00:15:58.672Z,99925.00
2018-12-30T00:18:27.773Z,99928.00
2018-12-30T00:20:56.895Z,99914.00
2018-12-30T00:23:45.318Z,99923.00
2018-12-30T00:26:33.690Z,99927.00
2018-12-30T00:28:47.250Z,99922.00
2018-12-30T00:31:16.882Z,99922.00
2018-12-30T00:33:46.380Z,99923.00
2018-12-30T00:36:15.568Z,99921.00
2018-12-30T00:38:44.898Z,99923.00
2018-12-30T00:41:14.033Z,99932.00
2018-12-30T00:43:43.137Z,99923.00
2018-12-30T00:46:12.333Z,99928.00
2018-12-30T00:48:41.496Z,99931.00
2018-12-30T00:51:16.958Z,99931.00
2018-12-30T00:53:41.788Z,99930.00
2018-12-30T00:56:11.137Z,99931.00
2018-12-30T00:58:40.230Z,99932.00
2018-12-30T01:01:09.583Z,99942.00
2018-12-30T01:03:55.206Z,99931.00
2018-12-30T01:06:22.431Z,99933.00
2018-12-30T01:08:51.894Z,99942.00
2018-12-30T01:11:21.045Z,99928.00
2018-12-30T01:13:54.405Z,99942.00
2018-12-30T01:16:21.388Z,99937.00
2018-12-30T01:18:50.529Z,99950.00
2018-12-30T01:21:25.052Z,99944.00
2018-12-30T01:23:50.902Z,99944.00
2018-12-30T01:26:19.985Z,99944.00
2018-12-30T01:28:49.179Z,99945.00
2018-12-30T01:31:18.526Z,99934.00
2018-12-30T01:33:48.058Z,99939.00
2018-12-30T01:36:17.137Z,99931.00
2018-12-30T01:38:46.925Z,99940.00
2018-12-30T01:41:16.299Z,99936.00
2018-12-30T01:43:45.404Z,99943.00
2018-12-30T01:46:14.766Z,99935.00
2018-12-30T01:48:44.122Z,99944.00
2018-12-30T01:51:13.310Z,99932.00
2018-12-30T01:53:42.713Z,99931.00
2018-12-30T01:56:11.841Z,99931.00
2018-12-30T01:58:40.941Z,99931.00
2018-12-30T02:01:10.082Z,99931.00
2018-12-30T02:03:39.291Z,99934.00
2018-12-30T02:06:08.731Z,99934.00
2018-12-30T02:08:37.846Z,99936.00
2018-12-30T02:11:06.962Z,99939.00
2018-12-30T02:13:36.054Z,99947.00
2018-12-30T02:16:05.399Z,99942.00
2018-12-30T02:18:34.512Z,99948.00
2018-12-30T02:21:03.674Z,99942.00
2018-12-30T02:23:33.077Z,99946.00
2018-12-30T02:26:02.108Z,99946.00
2018-12-30T02:28:31.471Z,99945.00
2018-12-30T02:31:00.577Z,99953.00
2018-12-30T02:33:29.940Z,99946.00
2018-12-30T02:35:59.305Z,99944.00
2018-12-30T02:38:28.410Z,99943.00
2018-12-30T02:40:57.752Z,99947.00
2018-12-30T02:43:26.877Z,99950.00
2018-12-30T02:45:55.962Z,99940.00
2018-12-30T02:48:25.369Z,99938.00
2018-12-30T02:50:54.519Z,99930.00
2018-12-30T02:53:23.877Z,99934.00
2018-12-30T02:55:53.057Z,99942.00
2018-12-30T02:58:22.440Z,99937.00
2018-12-30T03:00:51.797Z,99938.00
2018-12-30T03:03:20.911Z,99939.00
2018-12-30T03:05:50.244Z,99942.00
2018-12-30T03:08:19.599Z,99931.00
2018-12-30T03:10:48.882Z,99930.00
2018-12-30T03:13:18.243Z,99937.00
2018-12-30T03:15:47.371Z,99941.00
2018-12-30T03:18:16.446Z,99932.00
2018-12-30T03:20:45.586Z,99935.00
2018-12-30T03:23:14.976Z,99939.00
2018-12-30T03:25:44.058Z,99944.00
2018-12-30T03:28:15.899Z,99940.00
2018-12-30T03:30:45.449Z,99943.00
2018-12-30T03:33:14.770Z,99942.00
2018-12-30T03:35:44.277Z,99951.00
2018-12-30T03:38:13.455Z,99937.00
2018-12-30T03:40:42.856Z,99949.00
2018-12-30T03:43:11.954Z,99943.00
2018-12-30T03:45:42.495Z,99948.00
2018-12-30T03:48:12.045Z,99949.00
2018-12-30T03:50:41.404Z,99959.00
2018-12-30T03:53:10.527Z,99952.00
2018-12-30T03:55:39.727Z,99968.00
2018-12-30T03:58:09.092Z,99965.00
2018-12-30T04:00:38.233Z,99968.00
2018-12-30T04:03:09.593Z,99969.00
2018-12-30T04:05:39.026Z,99979.00
2018-12-30T04:08:08.179Z,99978.00
2018-12-30T04:10:37.534Z,99989.00
2018-12-30T04:13:06.647Z,100000.00
2018-12-30T04:15:35.748Z,100003.00
2018-12-30T04:18:24.215Z,100013.00
2018-12-30T04:20:53.350Z,100017.00
2018-12-30T04:23:22.552Z,100023.00
2018-12-30T04:25:51.679Z,100049.00
2018-12-30T04:28:20.811Z,100051.00
2018-12-30T04:30:50.182Z,100036.00
2018-12-30T04:33:19.544Z,100057.00
2018-12-30T04:35:48.645Z,100049.00
2018-12-30T04:38:18.023Z,100064.00
2018-12-30T04:40:47.147Z,100051.00
2018-12-30T04:43:16.313Z,100066.00
2018-12-30T04:45:45.900Z,100068.00
2018-12-30T04:48:15.016Z,100074.00
2018-12-30T04:50:44.202Z,100075.00
2018-12-30T04:53:13.301Z,100086.00
2018-12-30T04:55:42.730Z,100083.00
2018-12-30T04:58:11.892Z,100090.00
2018-12-30T05:00:41.046Z,100104.00
2018-12-30T05:03:10.374Z,100111.00
2018-12-30T05:05:43.323Z,100110.00
2018-12-30T05:08:12.795Z,100116.00
2018-12-30T05:10:41.969Z,100117.00
2018-12-30T05:13:11.308Z,100129.00
2018-12-30T05:15:40.784Z,100151.00
2018-12-30T05:18:09.915Z,100150.00
2018-12-30T05:20:39.262Z,100158.00
2018-12-30T05:23:08.653Z,100147.00
2018-12-30T05:25:37.756Z,100159.00
2018-12-30T05:28:06.847Z,100175.00
2018-12-30T05:30:35.966Z,100176.00
2018-12-30T05:33:05.504Z,100176.00
2018-12-30T05:35:34.843Z,100188.00
2018-12-30T05:38:03.973Z,100189.00
2018-12-30T05:40:33.311Z,100196.00
2018-12-30T05:43:02.468Z,100198.00
2018-12-30T05:45:31.660Z,100212.00
2018-12-30T05:48:00.830Z,100220.00
2018-12-30T05:50:29.958Z,100217.00
2018-12-30T05:52:59.094Z,100221.00
2018-12-30T05:55:28.173Z,100217.00
2018-12-30T05:57:57.292Z,100232.00
2018-12-30T06:00:26.669Z,100243.00
2018-12-30T06:02:56.162Z,100243.00
2018-12-30T06:05:25.311Z,100241.00
2018-12-30T06:07:54.705Z,100246.00
2018-12-30T06:10:24.432Z,100253.00
2018-12-30T06:12:53.689Z,100262.00
2018-12-30T06:15:22.810Z,100276.00
2018-12-30T06:17:51.945Z,100273.00
2018-12-30T06:20:21.723Z,100288.00
2018-12-30T06:22:51.118Z,100288.00
2018-12-30T06:25:20.788Z,100295.00
2018-12-30T06:27:50.178Z,100310.00
2018-12-30T06:30:19.270Z,100313.00
2018-12-30T06:32:50.190Z,100321.00
2018-12-30T06:35:19.426Z,100322.00
2018-12-30T06:37:48.590Z,100337.00
2018-12-30T06:40:17.641Z,100344.00
2018-12-30T06:42:47.012Z,100348.00
2018-12-30T06:45:16.378Z,100356.00
2018-12-30T06:47:45.535Z,100369.00
2018-12-30T06:50:14.976Z,100374.00
2018-12-30T06:52:44.169Z,100390.00
2018-12-30T06:55:13.509Z,100383.00
2018-12-30T06:57:42.890Z,100389.00
2018-12-30T07:00:12.046Z,100401.00
2018-12-30T07:02:41.434Z,100398.00
2018-12-30T07:05:10.526Z,100406.00
2018-12-30T07:07:39.667Z,100413.00
2018-12-30T07:10:08.856Z,100407.00
2018-12-30T07:12:38.215Z,100419.00
2018-12-30T07:15:07.563Z,100427.00
2018-12-30T07:17:36.979Z,100415.00
2018-12-30T07:20:07.410Z,100425.00
2018-12-30T07:22:36.529Z,100431.00
2018-12-30T07:25:06.064Z,100442.00
2018-12-30T07:27:35.153Z,100441.00
2018-12-30T07:30:05.677Z,100439.00
2018-12-30T07:32:34.860Z,100443.00
2018-12-30T07:35:04.068Z,100451.00
2018-12-30T07:37:33.193Z,100455.00
2018-12-30T07:40:02.564Z,100445.00
2018-12-30T07:42:31.967Z,100460.00
2018-12-30T07:45:01.086Z,100464.00
2018-12-30T07:47:30.423Z,100458.00
2018-12-30T07:49:59.550Z,100464.00
2018-12-30T07:52:28.952Z,100475.00
2018-12-30T07:54:58.043Z,100487.00
2018-12-30T07:57:27.133Z,100496.00
2018-12-30T07:59:56.771Z,100498.00
2018-12-30T08:02:25.858Z,100488.00
2018-12-30T08:04:55.077Z,100508.00
2018-12-30T08:07:24.506Z,100517.00
2018-12-30T08:09:53.981Z,100504.00
2018-12-30T08:12:23.098Z,100498.00
2018-12-30T08:14:52.467Z,100512.00
2018-12-30T08:17:21.618Z,100513.00
2018-12-30T08:19:51.090Z,100523.00
2018-12-30T08:22:20.186Z,100519.00
2018-12-30T08:24:49.315Z,100530.00
2018-12-30T08:27:18.660Z,100534.00
2018-12-30T08:29:47.803Z,100535.00
2018-12-30T08:32:17.143Z,100552.00
2018-12-30T08:34:46.292Z,100560.00
2018-12-30T08:37:15.411Z,100556.00
2018-12-30T08:39:44.550Z,100566.00
2018-12-30T08:42:32.971Z,100568.00
2018-12-30T08:45:02.122Z,100574.00
2018-12-30T08:47:31.489Z,100577.00
2018-12-30T08:50:00.929Z,100577.00
2018-12-30T08:52:30.271Z,100587.00
2018-12-30T08:54:59.787Z,100591.00
2018-12-30T08:57:28.913Z,100597.00
2018-12-30T08:59:58.319Z,100601.00
2018-12-30T09:02:27.723Z,100608.00
2018-12-30T09:04:57.758Z,100607.00
2018-12-30T09:07:26.866Z,100613.00
2018-12-30T09:09:56.034Z,100615.00
2018-12-30T09:12:25.135Z,100620.00
2018-12-30T09:14:54.282Z,100626.00
2018-12-30T09:17:23.427Z,100637.00
2018-12-30T09:19:54.939Z,100640.00
2018-12-30T09:22:24.431Z,100638.00
2018-12-30T09:24:53.614Z,100635.00
2018-12-30T09:27:23.962Z,100639.00
2018-12-30T09:29:53.268Z,100639.00
2018-12-30T09:32:24.489Z,100643.00
2018-12-30T09:34:53.659Z,100639.00
2018-12-30T09:37:22.751Z,100648.00
2018-12-30T09:39:52.132Z,100649.00
2018-12-30T09:42:21.571Z,100654.00
2018-12-30T09:44:51.093Z,100646.00
2018-12-30T09:47:20.458Z,100654.00
2018-12-30T09:49:49.565Z,100650.00
2018-12-30T09:52:18.650Z,100656.00
2018-12-30T09:54:47.794Z,100663.00
2018-12-30T09:57:17.139Z,100655.00
2018-12-30T09:59:46.250Z,100663.00
2018-12-30T10:02:15.337Z,100659.00
2018-12-30T10:04:44.457Z,100660.00
2018-12-30T10:07:14.426Z,100675.00
2018-12-30T10:09:44.112Z,100658.00
2018-12-30T10:12:13.814Z,100665.00
2018-12-30T10:14:43.075Z,100669.00
2018-12-30T10:17:14.282Z,100670.00
2018-12-30T10:19:43.631Z,100670.00
2018-12-30T10:22:12.818Z,100671.00
2018-12-30T10:24:41.903Z,100673.00
2018-12-30T10:27:11.023Z,100686.00
2018-12-30T10:29:40.368Z,100669.00
2018-12-30T10:32:09.807Z,100675.00
2018-12-30T10:34:38.923Z,100680.00
2018-12-30T10:37:08.294Z,100671.00
2018-12-30T10:39:37.635Z,100682.00
2018-12-30T10:42:06.730Z,100672.00
2018-12-30T10:44:35.825Z,100674.00
2018-12-30T10:47:05.214Z,100691.00
2018-12-30T10:49:34.305Z,100680.00
2018-12-30T10:52:03.448Z,100673.00
2018-12-30T10:54:32.870Z,100682.00
2018-12-30T10:57:02.409Z,100680.00
2018-12-30T10:59:31.522Z,100680.00
2018-12-30T11:02:01.115Z,100683.00
2018-12-30T11:04:30.235Z,100678.00
2018-12-30T11:06:59.788Z,100691.00
2018-12-30T11:09:29.204Z,100677.00
2018-12-30T11:11:58.606Z,100678.00
2018-12-30T11:14:27.736Z,100688.00
2018-12-30T11:16:56.849Z,100684.00
2018-12-30T11:19:27.631Z,100698.00
2018-12-30T11:21:58.476Z,100689.00
2018-12-30T11:24:27.833Z,100700.00
2018-12-30T11:26:57.370Z,100680.00
2018-12-30T11:29:32.021Z,100692.00
2018-12-30T11:32:08.207Z,100670.00
2018-12-30T11:34:37.517Z,100671.00
2018-12-30T11:37:06.936Z,100664.00
2018-12-30T11:39:54.173Z,100666.00
2018-12-30T11:42:23.334Z,100666.00
2018-12-30T11:44:52.515Z,100668.00
2018-12-30T11:47:21.678Z,100670.00
2018-12-30T11:49:51.040Z,100656.00
2018-12-30T11:52:20.544Z,100659.00
2018-12-30T11:54:49.903Z,100658.00
2018-12-30T11:57:19.265Z,100665.00
2018-12-30T11:59:48.346Z,100669.00
2018-12-30T12:02:23.936Z,100664.00
2018-12-30T12:04:49.426Z,100668.00
2018-12-30T12:07:18.561Z,100675.00
2018-12-30T12:09:47.947Z,100673.00
2018-12-30T12:12:17.063Z,100691.00
2018-12-30T12:14:46.210Z,100676.00
2018-12-30T12:17:15.599Z,100690.00
2018-12-30T12:19:47.187Z,100691.00
2018-12-30T12:22:16.311Z,100690.00
2018-12-30T12:24:45.498Z,100688.00
2018-12-30T12:27:14.912Z,100690.00
2018-12-30T12:29:44.013Z,100695.00
2018-12-30T12:32:13.218Z,100701.00
2018-12-30T12:34:42.591Z,100699.00
2018-12-30T12:37:12.105Z,100697.00
2018-12-30T12:39:41.479Z,100699.00
2018-12-30T12:42:10.651Z,100709.00
2018-12-30T12:44:39.730Z,100702.00
2018-12-30T12:47:08.871Z,100699.00
2018-12-30T12:49:37.951Z,100697.00
2018-12-30T12:52:07.331Z,100695.00
2018-12-30T12:54:36.673Z,100694.00
2018-12-30T12:57:05.868Z,100698.00
2018-12-30T12:59:35.535Z,100712.00
2018-12-30T13:02:04.672Z,100710.00
2018-12-30T13:04:33.796Z,100716.00
2018-12-30T13:07:03.135Z,100707.00
2018-12-30T13:09:32.229Z,100718.00
2018-12-30T13:12:01.349Z,100721.00
2018-12-30T13:14:30.554Z,100716.00
2018-12-30T13:16:59.717Z,100728.00
2018-12-30T13:19:28.774Z,100718.00
2018-12-30T13:21:57.898Z,100717.00
2018-12-30T13:24:27.238Z,100717.00
2018-12-30T13:26:56.355Z,100728.00
2018-12-30T13:29:25.801Z,100729.00
2018-12-30T13:31:54.901Z,100731.00
2018-12-30T13:34:24.277Z,100725.00
2018-12-30T13:36:53.779Z,100727.00
2018-12-30T13:39:22.896Z,100722.00
2018-12-30T13:41:52.252Z,100723.00
2018-12-30T13:44:21.442Z,100737.00
2018-12-30T13:46:50.783Z,100731.00
2018-12-30T13:49:20.005Z,100752.00
2018-12-30T13:51:49.158Z,100744.00
2018-12-30T13:54:18.224Z,100746.00
2018-12-30T13:56:47.347Z,100752.00
2018-12-30T13:59:16.431Z,100760.00
2018-12-30T14:01:45.918Z,100753.00
2018-12-30T14:04:15.380Z,100751.00
2018-12-30T14:06:44.739Z,100761.00
2018-12-30T14:09:14.087Z,100767.00
2018-12-30T14:11:44.167Z,100765.00
2018-12-30T14:14:13.303Z,100761.00
2018-12-30T14:16:43.172Z,100768.00
2018-12-30T14:19:14.042Z,100775.00
2018-12-30T14:21:43.169Z,100779.00
2018-12-30T14:24:12.601Z,100782.00
2018-12-30T14:26:41.743Z,100785.00
2018-12-30T14:29:10.922Z,100776.00
2018-12-30T14:31:40.176Z,100781.00
2018-12-30T14:34:09.549Z,100785.00
2018-12-30T14:36:38.988Z,100782.00
2018-12-30T14:39:08.204Z,100792.00
2018-12-30T14:41:37.607Z,100787.00
2018-12-30T14:44:08.898Z,100773.00
2018-12-30T14:46:38.197Z,100786.00
2018-12-30T14:49:07.563Z,100789.00
2018-12-30T14:51:36.641Z,100786.00
2018-12-30T14:54:05.755Z,100792.00
2018-12-30T14:56:35.127Z,100789.00
2018-12-30T14:59:04.551Z,100791.00
2018-12-30T15:01:33.920Z,100792.00
2018-12-30T15:04:03.094Z,100783.00
2018-12-30T15:06:32.211Z,100786.00
2018-12-30T15:09:01.335Z,100781.00
2018-12-30T15:11:30.771Z,100787.00
2018-12-30T15:13:59.913Z,100776.00
2018-12-30T15:16:29.083Z,100765.00
2018-12-30T15:18:58.113Z,100768.00
2018-12-30T15:21:27.279Z,100764.00
2018-12-30T15:23:56.401Z,100775.00
2018-12-30T15:26:25.754Z,100769.00
2018-12-30T15:28:55.090Z,100770.00
2018-12-30T15:31:24.202Z,100784.00
2018-12-30T15:33:53.293Z,100777.00
2018-12-30T15:36:22.387Z,100784.00
2018-12-30T15:38:51.581Z,100781.00
2018-12-30T15:41:20.940Z,100772.00
2018-12-30T15:43:50.298Z,100781.00
2018-12-30T15:46:19.525Z,100770.00
2018-12-30T15:48:48.857Z,100765.00
2018-12-30T15:51:17.985Z,100767.00
2018-12-30T15:53:47.366Z,100782.00
2018-12-30T15:56:16.555Z,100779.00
2018-12-30T15:58:46.327Z,100785.00
2018-12-30T16:01:15.420Z,100785.00
2018-12-30T16:03:44.547Z,100784.00
2018-12-30T16:06:13.896Z,100774.00
2018-12-30T16:08:42.981Z,100781.00
2018-12-30T16:11:12.075Z,100789.00
2018-12-30T16:13:41.512Z,100803.00
2018-12-30T16:16:10.853Z,100812.00
2018-12-30T16:18:39.963Z,100811.00
2018-12-30T16:21:09.385Z,100819.00
2018-12-30T16:23:38.495Z,100825.00
2018-12-30T16:26:07.910Z,100821.00
2018-12-30T16:28:37.303Z,100832.00
2018-12-30T16:31:06.391Z,100839.00
2018-12-30T16:33:35.520Z,100855.00
2018-12-30T16:36:04.627Z,100849.00
2018-12-30T16:38:33.714Z,100869.00
2018-12-30T16:41:03.196Z,100861.00
2018-12-30T16:43:32.297Z,100859.00
2018-12-30T16:46:01.728Z,100853.00
2018-12-30T16:48:30.813Z,100857.00
2018-12-30T16:50:59.959Z,100861.00
2018-12-30T16:53:29.468Z,100847.00
2018-12-30T16:55:58.585Z,100856.00
2018-12-30T16:58:27.946Z,100850.00
2018-12-30T17:00:57.074Z,100858.00
2018-12-30T17:03:26.423Z,100852.00
2018-12-30T17:05:55.530Z,100857.00
2018-12-30T17:08:24.674Z,100858.00
2018-12-30T17:10:54.084Z,100858.00
2018-12-30T17:13:23.461Z,100855.00
2018-12-30T17:15:52.707Z,100864.00
2018-12-30T17:18:21.900Z,100857.00
2018-12-30T17:20:51.414Z,100869.00
2018-12-30T17:23:21.059Z,100868.00
2018-12-30T17:25:50.174Z,100874.00
2018-12-30T17:28:19.613Z,100859.00
2018-12-30T17:30:48.983Z,100860.00
2018-12-30T17:33:18.198Z,100878.00
2018-12-30T17:35:47.239Z,100880.00
2018-12-30T17:38:16.366Z,100884.00
2018-12-30T17:40:45.728Z,100893.00
2018-12-30T17:43:15.072Z,100888.00
2018-12-30T17:45:44.164Z,100873.00
2018-12-30T17:48:13.530Z,100886.00
2018-12-30T17:50:42.945Z,100891.00
2018-12-30T17:53:12.041Z,100891.00
2018-12-30T17:55:41.190Z,100895.00
2018-12-30T17:58:10.325Z,100887.00
2018-12-30T18:00:39.488Z,100899.00
2018-12-30T18:03:08.814Z,100890.00
2018-12-30T18:05:38.102Z,100902.00
2018-12-30T18:08:07.362Z,100896.00
2018-12-30T18:10:37.186Z,100908.00
2018-12-30T18:13:06.559Z,100904.00
2018-12-30T18:15:35.700Z,100918.00
2018-12-30T18:18:04.842Z,100919.00
2018-12-30T18:20:33.955Z,100926.00
2018-12-30T18:23:03.050Z,100932.00
2018-12-30T18:25:32.202Z,100931.00
2018-12-30T18:28:01.298Z,100926.00
2018-12-30T18:30:31.429Z,100912.00
2018-12-30T18:33:00.839Z,100925.00
2018-12-30T18:35:30.574Z,100935.00
2018-12-30T18:37:59.726Z,100930.00
2018-12-30T18:40:29.146Z,100940.00
2018-12-30T18:42:58.327Z,100935.00
2018-12-30T18:45:27.799Z,100936.00
2018-12-30T18:47:57.219Z,100939.00
2018-12-30T18:50:26.379Z,100932.00
2018-12-30T18:52:55.763Z,100922.00
2018-12-30T18:55:24.898Z,100929.00
2018-12-30T18:57:54.025Z,100924.00
2018-12-30T19:00:23.833Z,100934.00
2018-12-30T19:02:53.439Z,100934.00
2018-12-30T19:05:22.579Z,100930.00
2018-12-30T19:07:51.726Z,100931.00
2018-12-30T19:10:21.214Z,100950.00
2018-12-30T19:12:50.394Z,100942.00
2018-12-30T19:15:19.523Z,100940.00
2018-12-30T19:17:48.855Z,100952.00
2018-12-30T19:20:18.441Z,100947.00
2018-12-30T19:22:48.187Z,100953.00
2018-12-30T19:25:17.309Z,100952.00
2018-12-30T19:27:46.445Z,100957.00
2018-12-30T19:30:15.898Z,100954.00
2018-12-30T19:32:45.037Z,100957.00
2018-12-30T19:35:14.383Z,100958.00
2018-12-30T19:37:43.786Z,100946.00
2018-12-30T19:40:12.907Z,100945.00
2018-12-30T19:42:42.051Z,100950.00
2018-12-30T19:45:11.401Z,100955.00
2018-12-30T19:47:40.621Z,100943.00
2018-12-30T19:50:09.691Z,100938.00
2018-12-30T19:52:39.142Z,100947.00
2018-12-30T19:55:08.714Z,100945.00
2018-12-30T19:57:38.498Z,100950.00
2018-12-30T20:00:10.452Z,100951.00
2018-12-30T20:02:39.559Z,100966.00
2018-12-30T20:05:09.002Z,100951.00
2018-12-30T20:07:38.388Z,100946.00
2018-12-30T20:10:08.023Z,100955.00
2018-12-30T20:12:37.116Z,100955.00
2018-12-30T20:15:07.451Z,100955.00
2018-12-30T20:17:36.817Z,100952.00
2018-12-30T20:20:06.980Z,100958.00
2018-12-30T20:22:36.128Z,100956.00
2018-12-30T20:25:05.221Z,100956.00
2018-12-30T20:27:34.394Z,100955.00
2018-12-30T20:30:03.856Z,100963.00
2018-12-30T20:32:33.390Z,100957.00
2018-12-30T20:35:02.904Z,100967.00
2018-12-30T20:37:32.001Z,100963.00
2018-12-30T20:40:01.172Z,100968.00
2018-12-30T20:42:30.382Z,100955.00
2018-12-30T20:44:59.547Z,100951.00
2018-12-30T20:47:28.737Z,100958.00
2018-12-30T20:49:57.869Z,100952.00
2018-12-30T20:52:27.257Z,100953.00
2018-12-30T20:54:57.593Z,100955.00
2018-12-30T20:57:26.669Z,100947.00
2018-12-30T20:59:56.061Z,100946.00
2018-12-30T21:02:25.175Z,100948.00
2018-12-30T21:04:54.291Z,100948.00
2018-12-30T21:07:23.683Z,100959.00
2018-12-30T21:09:52.794Z,100954.00
2018-12-30T21:12:22.268Z,100963.00
2018-12-30T21:14:51.319Z,100958.00
2018-12-30T21:17:20.787Z,100954.00
2018-12-30T21:19:49.961Z,100951.00
2018-12-30T21:22:19.410Z,100947.00
2018-12-30T21:24:48.506Z,100944.00
2018-12-30T21:27:17.965Z,100943.00
2018-12-30T21:29:47.131Z,100938.00
2018-12-30T21:32:16.624Z,100935.00
2018-12-30T21:34:45.718Z,100940.00
2018-12-30T21:37:15.022Z,100941.00
2018-12-30T21:39:44.165Z,100938.00
2018-12-30T21:42:13.472Z,100929.00
2018-12-30T21:44:42.887Z,100929.00
2018-12-30T21:47:12.019Z,100934.00
2018-12-30T21:49:41.171Z,100932.00
2018-12-30T21:52:10.222Z,100938.00
2018-12-30T21:54:39.731Z,100943.00
2018-12-30T21:57:09.109Z,100941.00
2018-12-30T21:59:38.263Z,100955.00
2018-12-30T22:02:07.787Z,100951.00
2018-12-30T22:04:37.224Z,100952.00
2018-12-30T22:07:06.555Z,100954.00
2018-12-30T22:09:35.670Z,100974.00
2018-12-30T22:12:04.765Z,100977.00
2018-12-30T22:14:33.926Z,100982.00
2018-12-30T22:17:03.018Z,100983.00
2018-12-30T22:19:32.115Z,100976.00
2018-12-30T22:22:01.213Z,100976.00
2018-12-30T22:24:30.306Z,100987.00
2018-12-30T22:27:00.199Z,100987.00
2018-12-30T22:29:29.330Z,100991.00
2018-12-30T22:31:58.467Z,101002.00
2018-12-30T22:34:28.490Z,100989.00
2018-12-30T22:36:57.912Z,100988.00
2018-12-30T22:39:27.310Z,100977.00
2018-12-30T22:41:56.414Z,100981.00
2018-12-30T22:44:25.537Z,100994.00
2018-12-30T22:46:54.631Z,100987.00
2018-12-30T22:49:23.804Z,100989.00
2018-12-30T22:51:52.914Z,100983.00
2018-12-30T22:54:22.262Z,100977.00
2018-12-30T22:56:51.394Z,100986.00
2018-12-30T22:59:20.479Z,100987.00
2018-12-30T23:01:49.857Z,100987.00
2018-12-30T23:04:19.011Z,100989.00
2018-12-30T23:06:48.379Z,100989.00
2018-12-30T23:09:17.594Z,100993.00
2018-12-30T23:11:46.783Z,100986.00
2018-12-30T23:14:15.826Z,100990.00
2018-12-30T23:16:45.181Z,100990.00
2018-12-30T23:19:14.265Z,100999.00
2018-12-30T23:21:43.378Z,101012.00
2018-12-30T23:24:12.502Z,101001.00
2018-12-30T23:26:41.590Z,101004.00
2018-12-30T23:29:10.685Z,101007.00
2018-12-30T23:31:39.778Z,101001.00
2018-12-30T23:34:08.886Z,101002.00
2018-12-30T23:36:37.990Z,100994.00
2018-12-30T23:39:08.388Z,101006.00
2018-12-30T23:41:38.217Z,101002.00
2018-12-30T23:44:09.202Z,100997.00
2018-12-30T23:46:38.455Z,101002.00
2018-12-30T23:49:07.679Z,101001.00
2018-12-30T23:51:36.889Z,100999.00
2018-12-30T23:54:06.313Z,100993.00
2018-12-30T23:56:35.593Z,101001.00
2018-12-30T23:59:05.035Z,100997.00
